createdAt,value
2022-11-15T00:00:59.279Z,1002.83
2022-11-15T00:01:59.325Z,1002.79
2022-11-15T00:02:59.237Z,1002.82
2022-11-15T00:03:59.217Z,1002.84
2022-11-15T00:04:59.194Z,1002.85
2022-11-15T00:05:59.192Z,1002.82
2022-11-15T00:06:59.232Z,1002.78
2022-11-15T00:07:59.224Z,1002.78
2022-11-15T00:08:59.105Z,1002.82
2022-11-15T00:09:59.089Z,1002.83
2022-11-15T00:10:59.067Z,1002.79
2022-11-15T00:11:59.056Z,1002.78
2022-11-15T00:12:59.041Z,1002.74
2022-11-15T00:13:59.002Z,1002.74
2022-11-15T00:14:58.982Z,1002.73
2022-11-15T00:15:58.962Z,1002.72
2022-11-15T00:16:58.938Z,1002.71
2022-11-15T00:17:58.928Z,1002.66
2022-11-15T00:18:58.901Z,1002.65
2022-11-15T00:19:58.887Z,1002.61
2022-11-15T00:20:58.858Z,1002.57
2022-11-15T00:21:58.858Z,1002.58
2022-11-15T00:22:58.816Z,1002.51
2022-11-15T00:23:58.800Z,1002.52
2022-11-15T00:24:58.779Z,1002.56
2022-11-15T00:25:58.765Z,1002.58
2022-11-15T00:26:58.734Z,1002.60
2022-11-15T00:27:58.712Z,1002.62
2022-11-15T00:28:58.688Z,1002.61
2022-11-15T00:29:58.671Z,1002.63
2022-11-15T00:30:58.647Z,1002.64
2022-11-15T00:31:58.628Z,1002.66
2022-11-15T00:32:58.607Z,1002.66
2022-11-15T00:33:58.602Z,1002.59
2022-11-15T00:34:58.568Z,1002.62
2022-11-15T00:35:58.548Z,1002.54
2022-11-15T00:36:58.523Z,1002.55
2022-11-15T00:37:58.534Z,1002.55
2022-11-15T00:38:58.481Z,1002.53
2022-11-15T00:39:58.462Z,1002.55
2022-11-15T00:40:58.457Z,1002.49
2022-11-15T00:41:58.418Z,1002.48
2022-11-15T00:42:58.397Z,1002.48
2022-11-15T00:43:58.379Z,1002.49
2022-11-15T00:44:58.355Z,1002.48
2022-11-15T00:45:58.334Z,1002.47
2022-11-15T00:46:58.315Z,1002.48
2022-11-15T00:47:58.296Z,1002.47
2022-11-15T00:48:58.275Z,1002.47
2022-11-15T00:49:58.250Z,1002.44
2022-11-15T00:50:58.228Z,1002.42
2022-11-15T00:51:58.216Z,1002.41
2022-11-15T00:52:58.187Z,1002.40
2022-11-15T00:53:58.193Z,1002.40
2022-11-15T00:54:58.149Z,1002.43
2022-11-15T00:55:58.127Z,1002.44
2022-11-15T00:56:58.104Z,1002.43
2022-11-15T00:57:58.086Z,1002.48
2022-11-15T00:58:58.062Z,1002.45
2022-11-15T00:59:58.045Z,1002.44
2022-11-15T01:00:58.097Z,1002.39
2022-11-15T01:01:58.006Z,1002.39
2022-11-15T01:02:57.979Z,1002.42
2022-11-15T01:04:01.218Z,1002.37
2022-11-15T01:04:57.939Z,1002.37
2022-11-15T01:05:57.920Z,1002.37
2022-11-15T01:06:57.974Z,1002.33
2022-11-15T01:07:57.878Z,1002.35
2022-11-15T01:08:57.855Z,1002.30
2022-11-15T01:09:57.855Z,1002.31
2022-11-15T01:10:57.811Z,1002.30
2022-11-15T01:11:57.795Z,1002.29
2022-11-15T01:12:57.770Z,1002.28
2022-11-15T01:13:57.753Z,1002.28
2022-11-15T01:14:57.731Z,1002.27
2022-11-15T01:15:57.715Z,1002.22
2022-11-15T01:16:57.690Z,1002.25
2022-11-15T01:17:57.669Z,1002.23
2022-11-15T01:18:57.649Z,1002.25
2022-11-15T01:19:57.630Z,1002.22
2022-11-15T01:20:57.607Z,1002.27
2022-11-15T01:21:57.588Z,1002.27
2022-11-15T01:22:57.564Z,1002.21
2022-11-15T01:23:57.545Z,1002.21
2022-11-15T01:24:57.524Z,1002.20
2022-11-15T01:25:57.521Z,1002.18
2022-11-15T01:26:57.483Z,1002.13
2022-11-15T01:27:57.460Z,1002.13
2022-11-15T01:28:57.437Z,1002.11
2022-11-15T01:29:57.419Z,1002.13
2022-11-15T01:30:57.399Z,1002.15
2022-11-15T01:31:57.383Z,1002.12
2022-11-15T01:32:57.361Z,1002.09
2022-11-15T01:33:57.335Z,1002.08
2022-11-15T01:34:57.311Z,1002.06
2022-11-15T01:35:57.296Z,1002.04
2022-11-15T01:36:57.273Z,1002.05
2022-11-15T01:37:57.250Z,1002.06
2022-11-15T01:38:57.237Z,1002.08
2022-11-15T01:39:57.212Z,1002.04
2022-11-15T01:40:57.192Z,1002.06
2022-11-15T01:41:57.187Z,1002.04
2022-11-15T01:42:57.151Z,1002.02
2022-11-15T01:43:57.124Z,1002.02
2022-11-15T01:44:57.100Z,1002.05
2022-11-15T01:45:57.086Z,1002.04
2022-11-15T01:46:57.064Z,1002.02
2022-11-15T01:47:57.050Z,1002.00
2022-11-15T01:48:57.022Z,1002.04
2022-11-15T01:49:57.003Z,1002.00
2022-11-15T01:50:56.979Z,1002.01
2022-11-15T01:51:56.962Z,1002.03
2022-11-15T01:52:56.944Z,1002.00
2022-11-15T01:53:56.922Z,1001.98
2022-11-15T01:54:56.897Z,1001.95
2022-11-15T01:55:56.882Z,1001.89
2022-11-15T01:56:56.857Z,1001.91
2022-11-15T01:57:56.856Z,1001.92
2022-11-15T01:58:56.817Z,1001.89
2022-11-15T01:59:56.799Z,1001.88
2022-11-15T02:00:56.851Z,1001.89
2022-11-15T02:01:56.751Z,1001.88
2022-11-15T02:02:56.731Z,1001.87
2022-11-15T02:03:56.714Z,1001.84
2022-11-15T02:04:56.687Z,1001.84
2022-11-15T02:05:56.670Z,1001.82
2022-11-15T02:06:56.698Z,1001.79
2022-11-15T02:07:56.628Z,1001.82
2022-11-15T02:08:56.608Z,1001.78
2022-11-15T02:09:56.586Z,1001.82
2022-11-15T02:10:56.566Z,1001.77
2022-11-15T02:11:56.546Z,1001.78
2022-11-15T02:12:56.522Z,1001.78
2022-11-15T02:13:56.522Z,1001.74
2022-11-15T02:14:56.478Z,1001.79
2022-11-15T02:16:00.341Z,1001.77
2022-11-15T02:16:56.444Z,1001.78
2022-11-15T02:17:56.418Z,1001.78
2022-11-15T02:18:56.402Z,1001.76
2022-11-15T02:19:56.380Z,1001.71
2022-11-15T02:20:56.355Z,1001.72
2022-11-15T02:21:56.337Z,1001.66
2022-11-15T02:22:56.317Z,1001.70
2022-11-15T02:23:56.297Z,1001.70
2022-11-15T02:24:56.273Z,1001.68
2022-11-15T02:25:56.253Z,1001.66
2022-11-15T02:26:56.235Z,1001.62
2022-11-15T02:27:56.213Z,1001.62
2022-11-15T02:28:56.193Z,1001.60
2022-11-15T02:29:56.193Z,1001.61
2022-11-15T02:30:56.150Z,1001.62
2022-11-15T02:31:56.131Z,1001.62
2022-11-15T02:32:56.109Z,1001.59
2022-11-15T02:33:56.090Z,1001.59
2022-11-15T02:34:56.068Z,1001.59
2022-11-15T02:35:56.051Z,1001.64
2022-11-15T02:36:56.027Z,1001.57
2022-11-15T02:37:56.006Z,1001.57
2022-11-15T02:38:55.987Z,1001.56
2022-11-15T02:39:55.967Z,1001.58
2022-11-15T02:40:55.940Z,1001.56
2022-11-15T02:41:55.924Z,1001.57
2022-11-15T02:42:55.900Z,1001.54
2022-11-15T02:43:55.884Z,1001.60
2022-11-15T02:44:55.857Z,1001.57
2022-11-15T02:45:55.863Z,1001.57
2022-11-15T02:46:55.816Z,1001.54
2022-11-15T02:47:55.820Z,1001.42
2022-11-15T02:48:55.785Z,1001.39
2022-11-15T02:49:55.765Z,1001.50
2022-11-15T02:50:55.734Z,1001.48
2022-11-15T02:51:55.740Z,1001.46
2022-11-15T02:52:55.701Z,1001.41
2022-11-15T02:53:55.686Z,1001.40
2022-11-15T02:54:55.654Z,1001.40
2022-11-15T02:55:55.644Z,1001.40
2022-11-15T02:56:55.607Z,1001.43
2022-11-15T02:57:55.593Z,1001.43
2022-11-15T02:58:55.567Z,1001.42
2022-11-15T02:59:55.555Z,1001.45
2022-11-15T03:00:55.550Z,1001.46
2022-11-15T03:01:55.526Z,1001.44
2022-11-15T03:02:55.483Z,1001.46
2022-11-15T03:03:55.471Z,1001.46
2022-11-15T03:04:55.452Z,1001.46
2022-11-15T03:05:55.474Z,1001.41
2022-11-15T03:06:55.410Z,1001.44
2022-11-15T03:08:00.926Z,1001.42
2022-11-15T03:08:55.364Z,1001.44
2022-11-15T03:09:55.343Z,1001.44
2022-11-15T03:10:55.325Z,1001.43
2022-11-15T03:11:55.305Z,1001.45
2022-11-15T03:12:55.277Z,1001.46
2022-11-15T03:13:55.265Z,1001.46
2022-11-15T03:14:55.237Z,1001.48
2022-11-15T03:15:55.222Z,1001.49
2022-11-15T03:16:55.195Z,1001.52
2022-11-15T03:17:55.203Z,1001.54
2022-11-15T03:18:55.157Z,1001.50
2022-11-15T03:19:55.154Z,1001.53
2022-11-15T03:20:55.117Z,1001.52
2022-11-15T03:21:55.098Z,1001.50
2022-11-15T03:22:55.076Z,1001.54
2022-11-15T03:23:55.056Z,1001.54
2022-11-15T03:24:55.035Z,1001.52
2022-11-15T03:25:55.015Z,1001.54
2022-11-15T03:26:54.994Z,1001.54
2022-11-15T03:27:54.977Z,1001.57
2022-11-15T03:28:54.955Z,1001.63
2022-11-15T03:29:54.931Z,1001.62
2022-11-15T03:30:54.914Z,1001.63
2022-11-15T03:31:54.892Z,1001.60
2022-11-15T03:32:54.871Z,1001.65
2022-11-15T03:33:54.870Z,1001.61
2022-11-15T03:34:54.833Z,1001.62
2022-11-15T03:35:54.809Z,1001.62
2022-11-15T03:36:54.780Z,1001.61
2022-11-15T03:37:54.810Z,1001.60
2022-11-15T03:38:54.748Z,1001.57
2022-11-15T03:39:54.729Z,1001.60
2022-11-15T03:40:54.704Z,1001.56
2022-11-15T03:41:54.684Z,1001.57
2022-11-15T03:42:54.667Z,1001.56
2022-11-15T03:43:54.649Z,1001.54
2022-11-15T03:44:54.624Z,1001.56
2022-11-15T03:45:54.599Z,1001.57
2022-11-15T03:46:54.586Z,1001.54
2022-11-15T03:47:54.568Z,1001.53
2022-11-15T03:48:54.543Z,1001.52
2022-11-15T03:49:54.551Z,1001.49
2022-11-15T03:50:54.503Z,1001.49
2022-11-15T03:51:54.485Z,1001.44
2022-11-15T03:52:54.459Z,1001.49
2022-11-15T03:53:54.443Z,1001.49
2022-11-15T03:54:54.425Z,1001.51
2022-11-15T03:55:54.409Z,1001.47
2022-11-15T03:56:54.380Z,1001.50
2022-11-15T03:57:54.363Z,1001.49
2022-11-15T03:58:54.339Z,1001.46
2022-11-15T03:59:54.320Z,1001.46
2022-11-15T04:00:54.416Z,1001.48
2022-11-15T04:01:54.282Z,1001.47
2022-11-15T04:02:54.257Z,1001.45
2022-11-15T04:03:54.238Z,1001.45
2022-11-15T04:04:54.213Z,1001.47
2022-11-15T04:05:54.219Z,1001.43
2022-11-15T04:06:54.211Z,1001.41
2022-11-15T04:07:54.157Z,1001.40
2022-11-15T04:08:54.140Z,1001.35
2022-11-15T04:09:54.120Z,1001.36
2022-11-15T04:10:54.093Z,1001.38
2022-11-15T04:11:54.076Z,1001.41
2022-11-15T04:12:54.054Z,1001.39
2022-11-15T04:13:54.036Z,1001.38
2022-11-15T04:14:54.015Z,1001.40
2022-11-15T04:15:53.994Z,1001.40
2022-11-15T04:16:53.973Z,1001.39
2022-11-15T04:17:53.960Z,1001.39
2022-11-15T04:18:53.939Z,1001.39
2022-11-15T04:19:53.917Z,1001.34
2022-11-15T04:20:53.897Z,1001.34
2022-11-15T04:21:53.892Z,1001.40
2022-11-15T04:22:53.858Z,1001.39
2022-11-15T04:23:53.841Z,1001.37
2022-11-15T04:24:53.811Z,1001.39
2022-11-15T04:25:53.796Z,1001.42
2022-11-15T04:26:53.773Z,1001.43
2022-11-15T04:27:53.757Z,1001.41
2022-11-15T04:28:53.731Z,1001.41
2022-11-15T04:29:53.715Z,1001.43
2022-11-15T04:30:53.695Z,1001.43
2022-11-15T04:31:53.677Z,1001.42
2022-11-15T04:32:53.650Z,1001.41
2022-11-15T04:33:53.631Z,1001.41
2022-11-15T04:34:53.612Z,1001.39
2022-11-15T04:35:53.596Z,1001.40
2022-11-15T04:36:53.572Z,1001.38
2022-11-15T04:37:53.579Z,1001.37
2022-11-15T04:38:53.534Z,1001.35
2022-11-15T04:39:53.510Z,1001.35
2022-11-15T04:40:53.492Z,1001.38
2022-11-15T04:41:53.467Z,1001.35
2022-11-15T04:42:53.450Z,1001.34
2022-11-15T04:43:53.429Z,1001.38
2022-11-15T04:44:53.409Z,1001.36
2022-11-15T04:45:53.389Z,1001.31
2022-11-15T04:46:53.369Z,1001.36
2022-11-15T04:47:53.351Z,1001.35
2022-11-15T04:48:58.303Z,1001.34
2022-11-15T04:49:53.311Z,1001.33
2022-11-15T04:50:53.290Z,1001.35
2022-11-15T04:51:53.269Z,1001.34
2022-11-15T04:52:53.250Z,1001.32
2022-11-15T04:53:53.249Z,1001.30
2022-11-15T04:54:53.207Z,1001.31
2022-11-15T04:55:53.185Z,1001.32
2022-11-15T04:56:53.168Z,1001.28
2022-11-15T04:57:53.149Z,1001.26
2022-11-15T04:58:53.128Z,1001.27
2022-11-15T04:59:53.108Z,1001.32
2022-11-15T05:00:53.157Z,1001.32
2022-11-15T05:01:53.069Z,1001.30
2022-11-15T05:02:53.045Z,1001.31
2022-11-15T05:03:53.032Z,1001.31
2022-11-15T05:04:53.008Z,1001.32
2022-11-15T05:05:52.982Z,1001.32
2022-11-15T05:06:53.046Z,1001.32
2022-11-15T05:07:52.945Z,1001.31
2022-11-15T05:08:52.923Z,1001.32
2022-11-15T05:09:52.930Z,1001.37
2022-11-15T05:10:52.887Z,1001.36
2022-11-15T05:11:52.867Z,1001.30
2022-11-15T05:12:52.846Z,1001.33
2022-11-15T05:13:52.823Z,1001.30
2022-11-15T05:14:52.805Z,1001.31
2022-11-15T05:15:52.783Z,1001.33
2022-11-15T05:16:52.761Z,1001.30
2022-11-15T05:17:52.748Z,1001.34
2022-11-15T05:18:52.723Z,1001.34
2022-11-15T05:19:52.704Z,1001.33
2022-11-15T05:20:52.688Z,1001.33
2022-11-15T05:21:52.666Z,1001.29
2022-11-15T05:22:52.643Z,1001.34
2022-11-15T05:23:52.628Z,1001.34
2022-11-15T05:24:52.624Z,1001.29
2022-11-15T05:25:52.603Z,1001.33
2022-11-15T05:26:52.568Z,1001.34
2022-11-15T05:27:52.546Z,1001.33
2022-11-15T05:28:52.542Z,1001.33
2022-11-15T05:29:52.510Z,1001.33
2022-11-15T05:30:52.524Z,1001.34
2022-11-15T05:31:52.466Z,1001.32
2022-11-15T05:32:52.444Z,1001.30
2022-11-15T05:33:52.434Z,1001.33
2022-11-15T05:34:52.403Z,1001.32
2022-11-15T05:35:52.386Z,1001.32
2022-11-15T05:36:52.366Z,1001.33
2022-11-15T05:37:52.348Z,1001.29
2022-11-15T05:38:52.323Z,1001.27
2022-11-15T05:39:52.306Z,1001.28
2022-11-15T05:40:52.284Z,1001.28
2022-11-15T05:41:52.286Z,1001.26
2022-11-15T05:42:52.244Z,1001.27
2022-11-15T05:43:52.227Z,1001.22
2022-11-15T05:44:52.200Z,1001.24
2022-11-15T05:45:52.187Z,1001.24
2022-11-15T05:46:52.167Z,1001.18
2022-11-15T05:47:52.151Z,1001.19
2022-11-15T05:48:52.126Z,1001.21
2022-11-15T05:49:52.115Z,1001.18
2022-11-15T05:50:52.085Z,1001.18
2022-11-15T05:51:52.070Z,1001.16
2022-11-15T05:52:52.047Z,1001.15
2022-11-15T05:53:52.026Z,1001.11
2022-11-15T05:54:52.003Z,1001.13
2022-11-15T05:55:51.989Z,1001.11
2022-11-15T05:56:51.972Z,1001.14
2022-11-15T05:57:51.964Z,1001.13
2022-11-15T05:58:56.751Z,1001.13
2022-11-15T05:59:51.903Z,1001.11
2022-11-15T06:00:51.884Z,1001.09
2022-11-15T06:01:51.953Z,1001.12
2022-11-15T06:02:51.845Z,1001.11
2022-11-15T06:03:51.826Z,1001.12
2022-11-15T06:04:51.807Z,1001.08
2022-11-15T06:05:51.787Z,1001.09
2022-11-15T06:06:51.814Z,1001.08
2022-11-15T06:07:51.749Z,1001.05
2022-11-15T06:08:51.729Z,1001.11
2022-11-15T06:09:51.707Z,1001.09
2022-11-15T06:10:51.689Z,1001.11
2022-11-15T06:11:51.668Z,1001.13
2022-11-15T06:12:51.647Z,1001.09
2022-11-15T06:13:51.645Z,1001.12
2022-11-15T06:14:51.614Z,1001.13
2022-11-15T06:15:51.590Z,1001.13
2022-11-15T06:16:51.569Z,1001.14
2022-11-15T06:17:51.552Z,1001.15
2022-11-15T06:18:51.537Z,1001.17
2022-11-15T06:19:51.508Z,1001.20
2022-11-15T06:20:51.488Z,1001.19
2022-11-15T06:21:51.468Z,1001.23
2022-11-15T06:22:51.449Z,1001.20
2022-11-15T06:23:51.433Z,1001.20
2022-11-15T06:24:51.416Z,1001.19
2022-11-15T06:25:51.402Z,1001.23
2022-11-15T06:26:51.370Z,1001.22
2022-11-15T06:27:51.350Z,1001.24
2022-11-15T06:28:51.332Z,1001.22
2022-11-15T06:29:51.332Z,1001.23
2022-11-15T06:30:53.309Z,1001.24
2022-11-15T06:31:51.270Z,1001.25
2022-11-15T06:32:51.248Z,1001.23
2022-11-15T06:33:51.233Z,1001.23
2022-11-15T06:34:51.212Z,1001.25
2022-11-15T06:35:51.199Z,1001.25
2022-11-15T06:36:51.166Z,1001.25
2022-11-15T06:37:51.148Z,1001.27
2022-11-15T06:38:51.132Z,1001.29
2022-11-15T06:39:51.112Z,1001.32
2022-11-15T06:40:51.091Z,1001.33
2022-11-15T06:41:51.075Z,1001.34
2022-11-15T06:42:51.050Z,1001.30
2022-11-15T06:43:51.033Z,1001.34
2022-11-15T06:44:51.014Z,1001.34
2022-11-15T06:45:51.051Z,1001.32
2022-11-15T06:46:50.976Z,1001.34
2022-11-15T06:47:50.955Z,1001.31
2022-11-15T06:48:50.932Z,1001.35
2022-11-15T06:49:50.915Z,1001.34
2022-11-15T06:50:50.894Z,1001.35
2022-11-15T06:51:50.869Z,1001.35
2022-11-15T06:52:50.856Z,1001.34
2022-11-15T06:53:50.834Z,1001.35
2022-11-15T06:54:50.813Z,1001.35
2022-11-15T06:55:55.013Z,1001.40
2022-11-15T06:56:50.775Z,1001.37
2022-11-15T06:57:50.751Z,1001.35
2022-11-15T06:58:50.731Z,1001.38
2022-11-15T06:59:50.713Z,1001.36
2022-11-15T07:00:50.761Z,1001.41
2022-11-15T07:01:50.763Z,1001.43
2022-11-15T07:02:50.651Z,1001.44
2022-11-15T07:03:50.647Z,1001.43
2022-11-15T07:04:50.616Z,1001.43
2022-11-15T07:05:50.592Z,1001.45
2022-11-15T07:06:50.643Z,1001.45
2022-11-15T07:07:50.552Z,1001.48
2022-11-15T07:08:50.532Z,1001.51
2022-11-15T07:09:50.512Z,1001.52
2022-11-15T07:10:50.500Z,1001.53
2022-11-15T07:11:50.473Z,1001.56
2022-11-15T07:12:50.457Z,1001.58
2022-11-15T07:13:50.431Z,1001.57
2022-11-15T07:14:50.428Z,1001.57
2022-11-15T07:15:50.390Z,1001.59
2022-11-15T07:16:50.372Z,1001.57
2022-11-15T07:17:50.376Z,1001.60
2022-11-15T07:18:50.342Z,1001.59
2022-11-15T07:19:50.313Z,1001.61
2022-11-15T07:20:50.292Z,1001.59
2022-11-15T07:21:50.274Z,1001.59
2022-11-15T07:22:50.284Z,1001.64
2022-11-15T07:23:50.255Z,1001.62
2022-11-15T07:24:50.214Z,1001.60
2022-11-15T07:25:50.201Z,1001.64
2022-11-15T07:26:50.178Z,1001.65
2022-11-15T07:27:50.154Z,1001.66
2022-11-15T07:28:50.132Z,1001.66
2022-11-15T07:29:50.122Z,1001.68
2022-11-15T07:30:50.097Z,1001.67
2022-11-15T07:31:50.072Z,1001.67
2022-11-15T07:32:50.054Z,1001.72
2022-11-15T07:33:50.096Z,1001.68
2022-11-15T07:34:50.016Z,1001.67
2022-11-15T07:35:50.005Z,1001.71
2022-11-15T07:36:49.976Z,1001.70
2022-11-15T07:37:49.956Z,1001.73
2022-11-15T07:38:49.934Z,1001.73
2022-11-15T07:39:49.927Z,1001.76
2022-11-15T07:40:49.893Z,1001.75
2022-11-15T07:41:49.879Z,1001.73
2022-11-15T07:42:49.859Z,1001.79
2022-11-15T07:43:49.835Z,1001.73
2022-11-15T07:44:49.831Z,1001.78
2022-11-15T07:45:52.363Z,1001.75
2022-11-15T07:46:49.776Z,1001.72
2022-11-15T07:47:49.761Z,1001.76
2022-11-15T07:48:49.730Z,1001.76
2022-11-15T07:49:49.745Z,1001.76
2022-11-15T07:50:49.694Z,1001.75
2022-11-15T07:51:49.676Z,1001.73
2022-11-15T07:52:49.656Z,1001.74
2022-11-15T07:53:49.638Z,1001.73
2022-11-15T07:54:49.616Z,1001.70
2022-11-15T07:55:49.600Z,1001.68
2022-11-15T07:56:49.579Z,1001.72
2022-11-15T07:57:49.575Z,1001.71
2022-11-15T07:58:49.537Z,1001.69
2022-11-15T07:59:49.534Z,1001.73
2022-11-15T08:00:49.502Z,1001.76
2022-11-15T08:01:49.641Z,1001.71
2022-11-15T08:02:49.601Z,1001.70
2022-11-15T08:03:49.449Z,1001.69
2022-11-15T08:04:49.420Z,1001.72
2022-11-15T08:05:49.424Z,1001.73
2022-11-15T08:06:49.402Z,1001.75
2022-11-15T08:07:52.592Z,1001.71
2022-11-15T08:08:49.345Z,1001.72
2022-11-15T08:09:49.332Z,1001.70
2022-11-15T08:10:49.303Z,1001.69
2022-11-15T08:11:49.282Z,1001.66
2022-11-15T08:12:49.338Z,1001.68
2022-11-15T08:13:49.246Z,1001.64
2022-11-15T08:14:49.226Z,1001.65
2022-11-15T08:15:52.233Z,1001.66
2022-11-15T08:16:49.183Z,1001.66
2022-11-15T08:17:49.169Z,1001.60
2022-11-15T08:18:49.147Z,1001.66
2022-11-15T08:19:49.131Z,1001.65
2022-11-15T08:20:49.111Z,1001.70
2022-11-15T08:21:49.104Z,1001.67
2022-11-15T08:22:49.065Z,1001.70
2022-11-15T08:23:49.058Z,1001.70
2022-11-15T08:24:49.028Z,1001.72
2022-11-15T08:25:49.012Z,1001.73
2022-11-15T08:26:49.109Z,1001.73
2022-11-15T08:27:48.972Z,1001.72
2022-11-15T08:28:48.946Z,1001.75
2022-11-15T08:29:48.928Z,1001.75
2022-11-15T08:30:48.913Z,1001.77
2022-11-15T08:31:48.896Z,1001.77
2022-11-15T08:32:48.869Z,1001.76
2022-11-15T08:33:48.854Z,1001.78
2022-11-15T08:34:48.828Z,1001.78
2022-11-15T08:35:48.822Z,1001.71
2022-11-15T08:36:48.798Z,1001.77
2022-11-15T08:37:48.798Z,1001.79
2022-11-15T08:38:48.762Z,1001.81
2022-11-15T08:39:48.746Z,1001.80
2022-11-15T08:40:48.719Z,1001.79
2022-11-15T08:41:48.700Z,1001.70
2022-11-15T08:42:48.684Z,1001.81
2022-11-15T08:43:48.664Z,1001.83
2022-11-15T08:44:48.643Z,1001.76
2022-11-15T08:45:48.622Z,1001.73
2022-11-15T08:46:48.608Z,1001.76
2022-11-15T08:47:54.006Z,1001.75
2022-11-15T08:48:48.584Z,1001.78
2022-11-15T08:49:48.551Z,1001.79
2022-11-15T08:50:48.541Z,1001.78
2022-11-15T08:51:48.533Z,1001.78
2022-11-15T08:52:48.509Z,1001.89
2022-11-15T08:53:48.592Z,1001.85
2022-11-15T08:54:48.465Z,1001.85
2022-11-15T08:55:48.447Z,1001.75
2022-11-15T08:56:48.427Z,1001.72
2022-11-15T08:57:48.413Z,1001.79
2022-11-15T08:58:48.395Z,1001.77
2022-11-15T08:59:48.380Z,1001.78
2022-11-15T09:00:48.365Z,1001.84
2022-11-15T09:01:48.405Z,1001.78
2022-11-15T09:02:48.329Z,1001.82
2022-11-15T09:03:48.315Z,1001.97
2022-11-15T09:04:48.291Z,1001.99
2022-11-15T09:05:48.277Z,1002.00
2022-11-15T09:06:48.328Z,1002.08
2022-11-15T09:07:48.259Z,1002.03
2022-11-15T09:08:48.847Z,1001.95
2022-11-15T09:09:48.246Z,1001.89
2022-11-15T09:10:48.201Z,1001.88
2022-11-15T09:11:48.195Z,1001.82
2022-11-15T09:12:48.168Z,1001.85
2022-11-15T09:13:48.156Z,1001.95
2022-11-15T09:14:48.147Z,1001.98
2022-11-15T09:15:48.129Z,1001.94
2022-11-15T09:16:48.108Z,1001.92
2022-11-15T09:17:48.097Z,1001.89
2022-11-15T09:18:48.093Z,1001.91
2022-11-15T09:19:48.070Z,1001.86
2022-11-15T09:20:48.052Z,1001.87
2022-11-15T09:21:48.035Z,1001.83
2022-11-15T09:22:48.022Z,1001.79
2022-11-15T09:23:48.010Z,1001.72
2022-11-15T09:24:47.988Z,1001.68
2022-11-15T09:25:48.002Z,1001.64
2022-11-15T09:26:47.962Z,1001.65
2022-11-15T09:27:47.945Z,1001.69
2022-11-15T09:28:47.928Z,1001.68
2022-11-15T09:29:47.917Z,1001.67
2022-11-15T09:30:47.901Z,1001.63
2022-11-15T09:31:47.888Z,1001.63
2022-11-15T09:32:47.867Z,1001.72
2022-11-15T09:33:47.856Z,1001.71
2022-11-15T09:34:47.832Z,1001.76
2022-11-15T09:35:47.822Z,1001.79
2022-11-15T09:36:47.801Z,1001.81
2022-11-15T09:37:52.184Z,1001.74
2022-11-15T09:38:47.772Z,1001.77
2022-11-15T09:39:47.762Z,1001.78
2022-11-15T09:40:47.741Z,1001.79
2022-11-15T09:41:47.742Z,1001.66
2022-11-15T09:42:47.714Z,1001.71
2022-11-15T09:43:47.691Z,1001.75
2022-11-15T09:44:47.671Z,1001.73
2022-11-15T09:45:47.659Z,1001.70
2022-11-15T09:46:47.646Z,1001.65
2022-11-15T09:47:47.628Z,1001.66
2022-11-15T09:48:47.612Z,1001.65
2022-11-15T09:49:47.588Z,1001.63
2022-11-15T09:50:47.578Z,1001.69
2022-11-15T09:51:47.901Z,1001.79
2022-11-15T09:52:47.544Z,1001.77
2022-11-15T09:54:24.125Z,1001.76
2022-11-15T09:54:55.729Z,1001.76
2022-11-15T09:55:47.494Z,1001.80
2022-11-15T09:56:47.478Z,1001.80
2022-11-15T09:57:47.486Z,1001.78
2022-11-15T09:58:47.448Z,1001.79
2022-11-15T09:59:47.431Z,1001.74
2022-11-15T10:00:48.524Z,1001.69
2022-11-15T10:01:47.421Z,1001.61
2022-11-15T10:02:47.379Z,1001.63
2022-11-15T10:03:47.366Z,1001.66
2022-11-15T10:04:47.349Z,1001.78
2022-11-15T10:05:47.337Z,1001.83
2022-11-15T10:06:47.353Z,1001.90
2022-11-15T10:07:47.307Z,1001.98
2022-11-15T10:08:47.285Z,1001.99
2022-11-15T10:09:47.287Z,1001.97
2022-11-15T10:10:47.250Z,1001.98
2022-11-15T10:11:47.238Z,1001.98
2022-11-15T10:12:47.216Z,1001.95
2022-11-15T10:13:47.232Z,1001.90
2022-11-15T10:14:51.582Z,1001.91
2022-11-15T10:15:47.181Z,1001.91
2022-11-15T10:16:47.158Z,1001.89
2022-11-15T10:17:47.149Z,1001.95
2022-11-15T10:18:47.135Z,1001.99
2022-11-15T10:19:47.120Z,1001.68
2022-11-15T10:20:47.100Z,1001.99
2022-11-15T10:21:47.085Z,1002.07
2022-11-15T10:22:47.065Z,1002.08
2022-11-15T10:23:47.047Z,1002.06
2022-11-15T10:24:47.032Z,1002.09
2022-11-15T10:25:47.023Z,1001.97
2022-11-15T10:26:47.013Z,1002.04
2022-11-15T10:27:47.001Z,1001.96
2022-11-15T10:28:46.982Z,1002.05
2022-11-15T10:29:47.059Z,1002.00
2022-11-15T10:30:46.944Z,1001.97
2022-11-15T10:31:46.937Z,1002.01
2022-11-15T10:32:46.938Z,1001.92
2022-11-15T10:33:46.904Z,1001.91
2022-11-15T10:34:46.888Z,1001.80
2022-11-15T10:35:46.876Z,1001.80
2022-11-15T10:36:50.277Z,1001.82
2022-11-15T10:37:46.846Z,1001.77
2022-11-15T10:38:46.829Z,1001.80
2022-11-15T10:39:46.816Z,1001.73
2022-11-15T10:40:46.804Z,1001.71
2022-11-15T10:41:46.794Z,1001.66
2022-11-15T10:42:46.775Z,1001.76
2022-11-15T10:43:46.761Z,1001.69
2022-11-15T10:44:46.746Z,1001.67
2022-11-15T10:45:46.753Z,1001.55
2022-11-15T10:46:47.863Z,1001.58
2022-11-15T10:47:46.712Z,1001.53
2022-11-15T10:48:46.689Z,1001.52
2022-11-15T10:49:46.680Z,1001.55
2022-11-15T10:50:46.670Z,1001.64
2022-11-15T10:51:46.676Z,1001.74
2022-11-15T10:52:46.639Z,1001.82
2022-11-15T10:53:46.625Z,1001.71
2022-11-15T10:54:46.616Z,1001.63
2022-11-15T10:55:46.596Z,1001.46
2022-11-15T10:56:46.581Z,1001.40
2022-11-15T10:57:46.568Z,1001.23
2022-11-15T10:58:46.553Z,1001.32
2022-11-15T10:59:46.548Z,1001.20
2022-11-15T11:00:46.527Z,1001.17
2022-11-15T11:01:46.568Z,1001.16
2022-11-15T11:02:46.503Z,1001.09
2022-11-15T11:03:46.489Z,1001.16
2022-11-15T11:04:46.478Z,1001.08
2022-11-15T11:05:46.467Z,1001.10
2022-11-15T11:06:46.481Z,1001.08
2022-11-15T11:07:46.435Z,1001.06
2022-11-15T11:08:46.419Z,1001.07
2022-11-15T11:09:46.409Z,1001.03
2022-11-15T11:10:58.605Z,1001.04
2022-11-15T11:11:46.381Z,1001.02
2022-11-15T11:12:46.378Z,1000.95
2022-11-15T11:13:46.354Z,1000.96
2022-11-15T11:14:46.347Z,1000.99
2022-11-15T11:15:46.331Z,1001.00
2022-11-15T11:16:46.318Z,1000.96
2022-11-15T11:17:46.332Z,1000.87
2022-11-15T11:18:46.295Z,1000.87
2022-11-15T11:19:46.280Z,1000.85
2022-11-15T11:20:46.270Z,1000.85
2022-11-15T11:21:46.269Z,1000.80
2022-11-15T11:22:46.238Z,1000.80
2022-11-15T11:23:46.227Z,1000.74
2022-11-15T11:24:46.217Z,1000.73
2022-11-15T11:25:46.204Z,1000.76
2022-11-15T11:26:46.191Z,1000.76
2022-11-15T11:27:46.183Z,1000.76
2022-11-15T11:28:46.168Z,1000.69
2022-11-15T11:29:46.155Z,1000.74
2022-11-15T11:30:46.142Z,1000.73
2022-11-15T11:31:46.129Z,1000.65
2022-11-15T11:32:46.111Z,1000.63
2022-11-15T11:33:46.133Z,1000.70
2022-11-15T11:34:46.091Z,1000.70
2022-11-15T11:35:46.076Z,1000.65
2022-11-15T11:36:46.065Z,1000.71
2022-11-15T11:37:46.051Z,1000.67
2022-11-15T11:38:46.047Z,1000.68
2022-11-15T11:39:46.034Z,1000.71
2022-11-15T11:40:46.017Z,1000.67
2022-11-15T11:41:45.998Z,1000.74
2022-11-15T11:42:45.997Z,1000.63
2022-11-15T11:43:45.979Z,1000.66
2022-11-15T11:44:45.965Z,1000.66
2022-11-15T11:45:47.448Z,1000.64
2022-11-15T11:46:45.945Z,1000.67
2022-11-15T11:47:45.926Z,1000.69
2022-11-15T11:48:45.912Z,1000.69
2022-11-15T11:49:45.941Z,1000.64
2022-11-15T11:50:45.888Z,1000.68
2022-11-15T11:51:45.889Z,1000.60
2022-11-15T11:52:45.860Z,1000.60
2022-11-15T11:53:45.855Z,1000.57
2022-11-15T11:54:45.841Z,1000.51
2022-11-15T11:55:45.820Z,1000.55
2022-11-15T11:56:45.810Z,1000.52
2022-11-15T11:57:45.808Z,1000.57
2022-11-15T11:58:45.789Z,1000.56
2022-11-15T11:59:45.772Z,1000.57
2022-11-15T12:00:45.760Z,1000.47
2022-11-15T12:01:46.052Z,1000.49
2022-11-15T12:02:45.867Z,1000.49
2022-11-15T12:03:45.727Z,1000.49
2022-11-15T12:04:45.720Z,1000.42
2022-11-15T12:05:45.719Z,1000.40